Time;durP1;ratioP1;P1;durP2;ratioP2;P2;SDS_P1;SDS_P2;PMS_P1;PMS_P2;Temp;Humidity;BMP_temperature;BMP_pressure;BME280_temperature;BME280_humidity;BME280_pressure;Samples;Min_cycle;Max_cycle;Signal;HPM_P1;HPM_P2
2024/01/28 00:00:47;;;;;;;4.18;1.98;;;;;;;16.94;48.50;103018.53;20995884;28;20119;-68
2024/01/28 00:10:50;;;;;;;4.80;2.40;;;;;;;16.86;48.56;103007.28;21002064;28;20048;-68
2024/01/28 00:20:51;;;;;;;6.10;2.47;;;;;;;16.83;48.38;103007.47;20986269;28;20056;-68
2024/01/28 00:30:53;;;;;;;3.58;1.90;;;;;;;16.89;48.29;103009.81;21019127;28;20059;-67
2024/01/28 00:40:55;;;;;;;4.60;2.13;;;;;;;16.87;48.00;102986.63;20971978;28;20040;-68
2024/01/28 00:50:57;;;;;;;5.07;2.15;;;;;;;16.87;47.92;102966.00;21001814;28;20488;-68
2024/01/28 01:01:02;;;;;;;4.50;2.40;;;;;;;16.89;47.90;102969.47;21036802;28;20058;-68
2024/01/28 01:11:06;;;;;;;4.32;2.08;;;;;;;16.87;47.71;102960.63;21037159;27;20052;-68
2024/01/28 01:21:08;;;;;;;3.65;2.05;;;;;;;16.86;47.54;102964.25;20967292;28;20048;-67
2024/01/28 01:31:10;;;;;;;4.00;2.05;;;;;;;16.86;47.43;102960.69;21012393;28;20568;-68
2024/01/28 01:41:12;;;;;;;3.40;2.10;;;;;;;16.84;47.18;102960.78;20985272;28;20050;-68
2024/01/28 01:51:14;;;;;;;2.92;2.03;;;;;;;16.91;46.82;102950.53;20994980;27;20056;-68
2024/01/28 02:01:16;;;;;;;4.22;2.30;;;;;;;17.04;46.37;102938.25;21017821;27;20052;-67
2024/01/28 02:11:19;;;;;;;3.63;2.20;;;;;;;17.07;46.32;102921.03;21015444;28;20048;-68
2024/01/28 02:21:21;;;;;;;4.88;2.40;;;;;;;17.12;46.21;102899.28;21016112;28;20056;-68
2024/01/28 02:31:22;;;;;;;4.07;2.05;;;;;;;17.16;45.96;102907.09;20994686;28;20519;-68
2024/01/28 02:41:25;;;;;;;2.92;2.05;;;;;;;17.20;45.82;102903.28;20974532;28;20401;-68
2024/01/28 02:51:26;;;;;;;4.53;2.55;;;;;;;17.21;45.76;102883.50;20988254;28;20135;-68
2024/01/28 03:01:28;;;;;;;5.45;2.45;;;;;;;17.25;45.45;102876.13;20994805;28;20048;-68
2024/01/28 03:11:30;;;;;;;3.78;2.47;;;;;;;17.27;45.45;102867.97;20990069;28;20052;-68
2024/01/28 03:21:32;;;;;;;4.35;2.38;;;;;;;17.28;45.21;102859.81;20985595;28;20055;-67
2024/01/28 03:31:34;;;;;;;5.47;2.40;;;;;;;17.27;45.13;102836.53;20980385;28;20131;-68
2024/01/28 03:41:38;;;;;;;4.95;2.80;;;;;;;17.30;45.14;102816.66;21003028;28;20056;-68
2024/01/28 03:51:40;;;;;;;4.75;2.47;;;;;;;17.30;45.05;102813.97;20964808;28;20052;-68
2024/01/28 04:01:41;;;;;;;4.03;2.28;;;;;;;17.15;45.05;102813.84;21009099;28;20040;-68
2024/01/28 04:11:44;;;;;;;3.70;2.30;;;;;;;17.12;45.25;102822.09;20968665;28;20048;-68
2024/01/28 04:21:45;;;;;;;6.00;2.70;;;;;;;17.08;45.07;102828.59;20988552;28;20491;-68
2024/01/28 04:31:47;;;;;;;4.65;2.10;;;;;;;17.10;45.13;102815.94;21037045;28;20052;-68
2024/01/28 04:41:50;;;;;;;5.50;2.65;;;;;;;17.09;44.90;102796.25;21035569;28;20047;-68
2024/01/28 04:51:51;;;;;;;4.80;2.22;;;;;;;17.12;44.78;102784.41;21036863;28;20474;-68
2024/01/28 05:01:56;;;;;;;4.95;2.40;;;;;;;17.13;44.66;102778.06;20980201;28;20052;-68
2024/01/28 05:11:59;;;;;;;3.73;2.27;;;;;;;17.14;44.45;102770.88;21025652;28;20052;-67
2024/01/28 05:22:01;;;;;;;4.75;2.00;;;;;;;17.13;44.42;102753.84;20981173;28;20056;-68
2024/01/28 05:32:03;;;;;;;5.95;2.60;;;;;;;17.07;44.29;102741.63;21018439;28;20532;-68
2024/01/28 05:42:05;;;;;;;4.85;2.22;;;;;;;17.19;44.21;102740.06;21012824;27;20043;-68
2024/01/28 05:52:07;;;;;;;4.10;2.20;;;;;;;17.23;44.02;102720.13;21038388;28;20066;-68
2024/01/28 06:02:09;;;;;;;4.38;2.75;;;;;;;17.24;43.81;102708.38;21012831;28;20052;-67
2024/01/28 06:12:10;;;;;;;4.10;2.53;;;;;;;17.27;43.41;102711.84;20982729;28;20489;-68
2024/01/28 06:22:12;;;;;;;4.55;2.38;;;;;;;17.29;43.55;102716.19;21018933;28;20468;-67
2024/01/28 06:32:14;;;;;;;3.65;2.00;;;;;;;17.28;43.48;102724.34;21038069;28;20050;-68
2024/01/28 06:42:19;;;;;;;4.28;2.17;;;;;;;17.28;43.34;102718.97;21009471;28;20109;-68
2024/01/28 06:52:21;;;;;;;2.83;2.05;;;;;;;17.32;43.23;102731.31;20974537;28;20060;-68
2024/01/28 07:02:24;;;;;;;2.58;2.13;;;;;;;17.36;43.05;102732.84;21002046;28;20043;-68
2024/01/28 07:12:26;;;;;;;3.80;2.30;;;;;;;17.34;42.95;102718.63;21008914;28;20056;-68
2024/01/28 07:22:28;;;;;;;3.03;2.08;;;;;;;17.43;42.67;102720.78;21021255;28;20052;-68
2024/01/28 07:32:29;;;;;;;4.47;2.50;;;;;;;17.47;42.51;102718.78;20997702;28;20108;-67
2024/01/28 07:42:32;;;;;;;4.10;2.17;;;;;;;17.45;42.52;102708.09;20979440;28;20131;-67
2024/01/28 07:52:34;;;;;;;3.83;2.20;;;;;;;17.49;42.20;102701.56;21010419;28;20131;-68
2024/01/28 08:02:36;;;;;;;4.57;2.40;;;;;;;17.50;42.25;102691.69;21004458;28;20053;-68
2024/01/28 08:12:38;;;;;;;5.07;2.30;;;;;;;17.37;42.59;102691.53;20994961;28;20470;-68
2024/01/28 08:22:41;;;;;;;4.13;2.40;;;;;;;17.45;42.38;102694.63;21039592;27;20047;-68
2024/01/28 08:32:42;;;;;;;4.65;2.15;;;;;;;17.70;42.17;102677.03;21000093;28;20047;-68
2024/01/28 08:42:44;;;;;;;3.97;2.03;;;;;;;18.15;41.74;102673.50;21013312;28;20052;-68
2024/01/28 08:52:46;;;;;;;4.32;1.85;;;;;;;18.65;40.84;102668.56;20986526;28;20071;-69
2024/01/28 09:02:48;;;;;;;4.30;2.10;;;;;;;18.97;40.39;102658.41;20980763;28;20056;-64
2024/01/28 09:12:49;;;;;;;3.28;2.08;;;;;;;19.25;40.18;102648.50;21002384;28;20115;-64
2024/01/28 09:22:51;;;;;;;3.28;1.80;;;;;;;19.35;39.54;102642.47;21000034;27;20052;-66
2024/01/28 09:32:53;;;;;;;2.35;1.80;;;;;;;19.40;39.87;102621.41;20974742;28;20048;-63
2024/01/28 09:43:02;;;;;;;2.35;1.67;;;;;;;19.49;39.61;102637.00;20972702;28;20386;-65
2024/01/28 09:53:04;;;;;;;3.60;1.73;;;;;;;19.55;39.40;102612.28;20996956;28;20054;-65
2024/01/28 10:03:06;;;;;;;2.22;1.60;;;;;;;19.55;38.95;102606.88;20982728;28;20114;-65
2024/01/28 10:13:08;;;;;;;2.78;1.67;;;;;;;19.60;38.93;102606.53;20971148;28;20048;-65
2024/01/28 10:23:10;;;;;;;2.60;1.83;;;;;;;19.68;38.74;102595.22;20966116;28;20059;-65
2024/01/28 10:33:12;;;;;;;1.85;1.52;;;;;;;19.88;38.53;102582.13;20963461;28;20052;-65
2024/01/28 10:43:17;;;;;;;;;;;;;;;20.10;38.10;102576.09;20988917;28;20098;-65
2024/01/28 10:53:21;;;;;;;2.92;1.73;;;;;;;20.16;37.76;102569.38;20975803;28;21974;-65
2024/01/28 11:03:23;;;;;;;1.85;1.70;;;;;;;20.19;37.62;102555.63;20967068;27;20589;-65
2024/01/28 11:13:25;;;;;;;2.17;1.70;;;;;;;20.19;37.52;102551.09;20968127;27;20085;-64
2024/01/28 11:23:28;;;;;;;2.38;1.80;;;;;;;20.18;37.28;102540.38;20966936;28;20503;-64
2024/01/28 11:33:34;;;;;;;2.85;1.67;;;;;;;20.21;36.83;102519.41;20944391;28;20052;-64
2024/01/28 11:43:36;;;;;;;2.38;1.77;;;;;;;20.28;36.71;102525.22;20961724;28;20492;-64
2024/01/28 11:53:42;;;;;;;1.85;1.30;;;;;;;20.31;36.65;102497.94;20961220;28;20194;-64
2024/01/28 12:03:44;;;;;;;1.40;1.30;;;;;;;20.41;36.43;102488.19;20954471;28;20731;-65
2024/01/28 12:13:46;;;;;;;3.33;1.40;;;;;;;20.43;36.72;102474.53;20971093;28;20055;-64
2024/01/28 12:23:53;;;;;;;2.33;1.42;;;;;;;20.54;36.74;102476.44;20975614;28;20052;-64
2024/01/28 12:33:54;;;;;;;2.03;1.30;;;;;;;20.54;36.75;102452.94;20969659;28;20610;-65
2024/01/28 12:43:56;;;;;;;1.30;1.20;;;;;;;20.48;37.15;102447.16;20969977;28;20826;-63
2024/01/28 12:53:58;;;;;;;1.90;1.10;;;;;;;20.42;37.17;102435.81;20958864;28;20162;-63
2024/01/28 13:04:00;;;;;;;2.70;1.40;;;;;;;20.39;37.34;102433.34;20985505;27;20136;-64
2024/01/28 13:14:02;;;;;;;1.42;1.23;;;;;;;20.34;37.60;102419.31;20968785;28;20044;-64
2024/01/28 13:24:07;;;;;;;2.38;1.30;;;;;;;20.25;37.72;102398.34;20961710;28;20527;-63
2024/01/28 13:34:08;;;;;;;1.25;1.02;;;;;;;20.17;37.75;102369.19;20967841;28;20413;-65
2024/01/28 13:44:11;;;;;;;1.95;1.30;;;;;;;20.14;37.95;102355.91;20978255;28;20048;-64
2024/01/28 13:54:13;;;;;;;2.38;1.10;;;;;;;20.11;37.91;102340.75;20965589;28;20267;-64
2024/01/28 14:04:15;;;;;;;2.45;1.17;;;;;;;20.01;38.04;102323.53;20970492;27;20056;-65
2024/01/28 14:14:17;;;;;;;1.52;1.05;;;;;;;20.02;38.20;102325.25;20972842;28;20045;-63
2024/01/28 14:24:19;;;;;;;1.52;1.10;;;;;;;20.02;38.27;102308.16;20981472;28;20929;-63
2024/01/28 14:34:21;;;;;;;1.67;1.17;;;;;;;20.04;38.13;102309.78;20984144;28;20127;-63
2024/01/28 14:44:23;;;;;;;2.05;1.10;;;;;;;20.00;38.44;102319.94;20956436;28;20044;-64
2024/01/28 14:54:24;;;;;;;1.05;0.90;;;;;;;20.00;38.51;102300.16;20982028;28;20071;-64
2024/01/28 15:04:26;;;;;;;1.63;1.00;;;;;;;19.99;38.33;102304.69;20973242;28;20048;-64
2024/01/28 15:14:28;;;;;;;1.55;1.20;;;;;;;19.95;38.55;102288.84;20969093;28;20523;-64
2024/01/28 15:24:31;;;;;;;2.85;1.30;;;;;;;19.93;38.67;102277.28;20976627;28;20055;-65
2024/01/28 15:34:33;;;;;;;1.95;1.10;;;;;;;19.91;38.65;102276.56;20980845;27;20500;-66
2024/01/28 15:44:35;;;;;;;2.40;1.50;;;;;;;19.83;39.40;102272.53;20970677;28;20151;-70
2024/01/28 15:54:37;;;;;;;1.55;1.02;;;;;;;19.79;39.32;102265.63;20966664;28;20044;-66
2024/01/28 16:04:40;;;;;;;3.08;1.20;;;;;;;19.75;39.41;102253.34;20979986;28;20416;-65
2024/01/28 16:14:42;;;;;;;2.47;1.55;;;;;;;19.68;39.55;102246.69;20975043;28;20484;-64
2024/01/28 16:24:44;;;;;;;2.17;1.20;;;;;;;19.64;40.70;102242.47;20946586;28;20048;-65
2024/01/28 16:34:46;;;;;;;1.67;1.33;;;;;;;19.59;41.03;102241.97;20960523;28;20084;-66
2024/01/28 16:44:48;;;;;;;1.20;1.10;;;;;;;19.54;43.65;102229.69;20957706;27;20055;-66
2024/01/28 16:54:49;;;;;;;1.75;1.10;;;;;;;19.44;43.99;102208.84;20954622;28;20152;-66
2024/01/28 17:04:51;;;;;;;1.45;1.10;;;;;;;19.32;43.58;102207.94;20968511;27;20867;-65
2024/01/28 17:14:53;;;;;;;2.08;1.48;;;;;;;19.27;43.16;102206.44;20945603;28;20044;-64
2024/01/28 17:24:55;;;;;;;1.27;1.10;;;;;;;19.22;42.88;102197.81;20948218;28;20056;-63
2024/01/28 17:34:57;;;;;;;1.30;1.10;;;;;;;19.16;42.50;102189.31;20967361;27;20052;-64
2024/01/28 17:44:59;;;;;;;1.27;1.00;;;;;;;19.06;42.35;102187.28;20942598;28;20045;-65
2024/01/28 17:55:01;;;;;;;2.00;1.35;;;;;;;18.95;42.28;102188.03;20955885;27;20443;-67
2024/01/28 18:05:03;;;;;;;2.45;1.17;;;;;;;18.83;43.13;102186.22;20989868;28;20044;-66
2024/01/28 18:15:07;;;;;;;1.27;1.15;;;;;;;18.81;43.33;102172.00;21015719;28;20056;-65
2024/01/28 18:25:10;;;;;;;1.67;1.15;;;;;;;18.76;43.31;102157.97;21012241;28;20044;-66
2024/01/28 18:35:13;;;;;;;1.60;1.30;;;;;;;18.69;43.50;102152.16;21004303;28;20764;-66
2024/01/28 18:45:14;;;;;;;1.25;1.15;;;;;;;18.66;43.77;102147.88;20977418;28;20052;-66
2024/01/28 18:55:16;;;;;;;1.33;1.00;;;;;;;18.64;43.87;102160.59;20980200;28;20044;-65
2024/01/28 19:05:18;;;;;;;2.35;1.20;;;;;;;18.62;43.97;102156.28;20971918;28;20048;-66
2024/01/28 19:15:21;;;;;;;2.30;1.73;;;;;;;18.62;43.87;102148.19;20982549;28;20051;-65
2024/01/28 19:25:23;;;;;;;1.98;1.40;;;;;;;18.64;43.95;102144.41;20967425;28;20121;-66
2024/01/28 19:35:25;;;;;;;2.70;1.20;;;;;;;18.60;44.04;102137.53;20960053;28;20504;-65
2024/01/28 19:45:27;;;;;;;2.55;1.50;;;;;;;18.59;43.89;102141.19;20968169;28;20055;-66
2024/01/28 19:55:29;;;;;;;1.67;1.15;;;;;;;18.54;43.94;102127.16;20975109;28;20052;-65
2024/01/28 20:05:30;;;;;;;2.35;1.35;;;;;;;18.45;44.09;102128.69;20960645;28;20612;-65
2024/01/28 20:15:32;;;;;;;2.85;1.70;;;;;;;18.49;44.31;102140.09;20952924;28;20055;-65
2024/01/28 20:25:35;;;;;;;1.73;1.33;;;;;;;18.46;44.13;102130.41;20968896;28;20066;-65
2024/01/28 20:35:37;;;;;;;1.98;1.40;;;;;;;18.45;44.10;102127.81;20951319;28;20055;-65
2024/01/28 20:45:39;;;;;;;2.53;1.45;;;;;;;18.48;44.06;102122.19;20964115;28;20397;-65
2024/01/28 20:55:41;;;;;;;1.63;1.20;;;;;;;18.50;44.23;102126.53;20976155;28;20452;-64
2024/01/28 21:05:43;;;;;;;1.50;1.30;;;;;;;18.55;43.97;102134.25;20952244;28;20055;-65
2024/01/28 21:15:45;;;;;;;1.50;1.20;;;;;;;18.52;44.06;102121.00;20951838;28;20540;-66
2024/01/28 21:25:51;;;;;;;1.50;1.33;;;;;;;18.57;44.36;102118.00;20962584;28;20646;-65
2024/01/28 21:35:53;;;;;;;2.67;1.63;;;;;;;18.58;44.14;102107.09;20961034;28;20048;-65
2024/01/28 21:45:54;;;;;;;1.73;1.30;;;;;;;18.56;43.87;102111.75;20986392;27;20051;-65
2024/01/28 21:56:00;;;;;;;2.72;1.48;;;;;;;18.57;43.46;102094.59;20970268;28;20148;-65
2024/01/28 22:06:02;;;;;;;;;;;;;;;18.52;43.05;102103.00;20976660;28;20055;-65
2024/01/28 22:16:04;;;;;;;1.92;1.30;;;;;;;18.50;42.96;102101.38;20971011;28;19924;-65
2024/01/28 22:26:07;;;;;;;1.52;1.27;;;;;;;18.46;43.15;102107.97;20946986;28;20040;-65
2024/01/28 22:36:10;;;;;;;1.70;1.30;;;;;;;18.46;42.80;102124.16;20969256;28;20518;-66
2024/01/28 22:46:12;;;;;;;1.98;1.20;;;;;;;18.32;42.96;102101.75;21013159;27;20044;-67
2024/01/28 22:56:14;;;;;;;2.38;1.20;;;;;;;18.25;42.98;102100.47;21022152;28;20588;-67
2024/01/28 23:06:17;;;;;;;1.40;1.08;;;;;;;18.18;42.92;102093.78;21006234;28;20045;-67
2024/01/28 23:16:19;;;;;;;1.83;1.05;;;;;;;18.13;42.91;102087.88;20983664;28;20081;-67
2024/01/28 23:26:22;;;;;;;2.05;1.08;;;;;;;18.08;42.63;102091.72;20986085;28;20052;-67
2024/01/28 23:36:24;;;;;;;1.55;1.10;;;;;;;18.06;42.51;102092.81;20997606;28;20048;-67
2024/01/28 23:46:27;;;;;;;1.45;1.10;;;;;;;18.02;42.42;102100.25;20987587;28;20488;-67
2024/01/28 23:56:29;;;;;;;1.23;1.08;;;;;;;17.94;42.30;102094.50;21008886;28;20044;-67
